sensor_id;sensor_type;location;lat;lon;timestamp;P1;durP1;ratioP1;P2;durP2;ratioP2
74872;SDS011;68776;44.762;37.698;2023-09-07T00:00:34;23.25;;;6.20;;
74872;SDS011;68776;44.762;37.698;2023-09-07T00:01:35;24.43;;;6.70;;
74872;SDS011;68776;44.762;37.698;2023-09-07T00:02:36;23.15;;;5.93;;
74872;SDS011;68776;44.762;37.698;2023-09-07T00:03:39;31.65;;;7.03;;
74872;SDS011;68776;44.762;37.698;2023-09-07T00:04:41;19.85;;;5.00;;
74872;SDS011;68776;44.762;37.698;2023-09-07T00:05:43;24.40;;;6.90;;
74872;SDS011;68776;44.762;37.698;2023-09-07T00:06:45;24.20;;;6.57;;
74872;SDS011;68776;44.762;37.698;2023-09-07T00:07:46;23.85;;;6.38;;
74872;SDS011;68776;44.762;37.698;2023-09-07T00:08:47;26.88;;;7.35;;
74872;SDS011;68776;44.762;37.698;2023-09-07T00:09:48;23.20;;;6.43;;
74872;SDS011;68776;44.762;37.698;2023-09-07T00:10:49;23.13;;;6.32;;
74872;SDS011;68776;44.762;37.698;2023-09-07T00:11:50;22.10;;;5.90;;
74872;SDS011;68776;44.762;37.698;2023-09-07T00:12:51;19.40;;;5.30;;
74872;SDS011;68776;44.762;37.698;2023-09-07T00:13:53;22.60;;;5.55;;
74872;SDS011;68776;44.762;37.698;2023-09-07T00:14:54;22.98;;;5.97;;
74872;SDS011;68776;44.762;37.698;2023-09-07T00:15:57;23.42;;;6.20;;
74872;SDS011;68776;44.762;37.698;2023-09-07T00:17:00;23.83;;;6.18;;
74872;SDS011;68776;44.762;37.698;2023-09-07T00:18:01;24.07;;;6.60;;
74872;SDS011;68776;44.762;37.698;2023-09-07T00:19:02;23.75;;;6.28;;
74872;SDS011;68776;44.762;37.698;2023-09-07T00:20:03;20.38;;;5.20;;
74872;SDS011;68776;44.762;37.698;2023-09-07T00:21:25;20.95;;;5.28;;
74872;SDS011;68776;44.762;37.698;2023-09-07T00:22:26;23.67;;;6.05;;
74872;SDS011;68776;44.762;37.698;2023-09-07T00:23:27;23.38;;;5.95;;
74872;SDS011;68776;44.762;37.698;2023-09-07T00:24:29;24.83;;;6.43;;
74872;SDS011;68776;44.762;37.698;2023-09-07T00:25:31;26.10;;;6.28;;
74872;SDS011;68776;44.762;37.698;2023-09-07T00:26:32;22.40;;;5.90;;
74872;SDS011;68776;44.762;37.698;2023-09-07T00:27:33;24.00;;;6.90;;
74872;SDS011;68776;44.762;37.698;2023-09-07T00:28:34;23.23;;;6.20;;
74872;SDS011;68776;44.762;37.698;2023-09-07T00:29:35;23.75;;;6.13;;
74872;SDS011;68776;44.762;37.698;2023-09-07T00:30:36;23.40;;;6.13;;
74872;SDS011;68776;44.762;37.698;2023-09-07T00:31:37;24.40;;;7.10;;
74872;SDS011;68776;44.762;37.698;2023-09-07T00:32:38;23.05;;;6.10;;
74872;SDS011;68776;44.762;37.698;2023-09-07T00:33:40;22.65;;;5.93;;
74872;SDS011;68776;44.762;37.698;2023-09-07T00:34:41;24.93;;;6.93;;
74872;SDS011;68776;44.762;37.698;2023-09-07T00:35:42;23.80;;;5.97;;
74872;SDS011;68776;44.762;37.698;2023-09-07T00:36:43;22.45;;;5.97;;
74872;SDS011;68776;44.762;37.698;2023-09-07T00:37:44;21.35;;;5.80;;
74872;SDS011;68776;44.762;37.698;2023-09-07T00:38:45;23.05;;;6.00;;
74872;SDS011;68776;44.762;37.698;2023-09-07T00:39:46;23.42;;;6.63;;
74872;SDS011;68776;44.762;37.698;2023-09-07T00:40:47;21.70;;;6.00;;
74872;SDS011;68776;44.762;37.698;2023-09-07T00:41:48;31.67;;;6.07;;
74872;SDS011;68776;44.762;37.698;2023-09-07T00:42:49;24.53;;;6.80;;
74872;SDS011;68776;44.762;37.698;2023-09-07T00:43:50;23.95;;;5.97;;
74872;SDS011;68776;44.762;37.698;2023-09-07T00:44:51;21.95;;;5.65;;
74872;SDS011;68776;44.762;37.698;2023-09-07T00:45:52;20.70;;;5.10;;
74872;SDS011;68776;44.762;37.698;2023-09-07T00:46:53;23.15;;;6.25;;
74872;SDS011;68776;44.762;37.698;2023-09-07T00:47:54;23.67;;;6.15;;
74872;SDS011;68776;44.762;37.698;2023-09-07T00:48:55;25.40;;;6.72;;
74872;SDS011;68776;44.762;37.698;2023-09-07T00:49:57;23.13;;;6.07;;
74872;SDS011;68776;44.762;37.698;2023-09-07T00:50:59;27.80;;;6.53;;
74872;SDS011;68776;44.762;37.698;2023-09-07T00:52:00;23.58;;;6.63;;
74872;SDS011;68776;44.762;37.698;2023-09-07T00:53:01;21.52;;;5.72;;
74872;SDS011;68776;44.762;37.698;2023-09-07T00:54:03;20.40;;;5.22;;
74872;SDS011;68776;44.762;37.698;2023-09-07T00:55:05;20.42;;;5.38;;
74872;SDS011;68776;44.762;37.698;2023-09-07T00:56:07;22.52;;;6.63;;
74872;SDS011;68776;44.762;37.698;2023-09-07T00:57:08;22.83;;;6.05;;
74872;SDS011;68776;44.762;37.698;2023-09-07T00:58:09;22.40;;;6.03;;
74872;SDS011;68776;44.762;37.698;2023-09-07T00:59:12;22.25;;;5.82;;
74872;SDS011;68776;44.762;37.698;2023-09-07T01:00:14;23.05;;;6.15;;
74872;SDS011;68776;44.762;37.698;2023-09-07T01:01:15;23.07;;;5.93;;
74872;SDS011;68776;44.762;37.698;2023-09-07T01:02:16;25.15;;;6.93;;
74872;SDS011;68776;44.762;37.698;2023-09-07T01:03:17;22.60;;;6.22;;
74872;SDS011;68776;44.762;37.698;2023-09-07T01:04:18;21.48;;;5.47;;
74872;SDS011;68776;44.762;37.698;2023-09-07T01:05:20;20.83;;;5.40;;
74872;SDS011;68776;44.762;37.698;2023-09-07T01:06:35;22.80;;;6.28;;
74872;SDS011;68776;44.762;37.698;2023-09-07T01:07:42;21.95;;;6.00;;
74872;SDS011;68776;44.762;37.698;2023-09-07T01:08:51;20.63;;;5.40;;
74872;SDS011;68776;44.762;37.698;2023-09-07T01:09:57;22.92;;;6.15;;
74872;SDS011;68776;44.762;37.698;2023-09-07T01:11:01;24.00;;;6.45;;
74872;SDS011;68776;44.762;37.698;2023-09-07T01:12:04;22.63;;;6.20;;
74872;SDS011;68776;44.762;37.698;2023-09-07T01:13:05;23.30;;;6.53;;
74872;SDS011;68776;44.762;37.698;2023-09-07T01:14:06;27.05;;;6.80;;
74872;SDS011;68776;44.762;37.698;2023-09-07T01:15:07;22.20;;;6.30;;
74872;SDS011;68776;44.762;37.698;2023-09-07T01:16:09;22.25;;;6.07;;
74872;SDS011;68776;44.762;37.698;2023-09-07T01:17:12;22.65;;;6.20;;
74872;SDS011;68776;44.762;37.698;2023-09-07T01:18:14;22.98;;;6.53;;
74872;SDS011;68776;44.762;37.698;2023-09-07T01:19:16;25.38;;;6.07;;
74872;SDS011;68776;44.762;37.698;2023-09-07T01:20:17;21.93;;;5.80;;
74872;SDS011;68776;44.762;37.698;2023-09-07T01:21:19;22.70;;;5.93;;
74872;SDS011;68776;44.762;37.698;2023-09-07T01:22:20;19.35;;;4.93;;
74872;SDS011;68776;44.762;37.698;2023-09-07T01:23:25;22.33;;;5.47;;
74872;SDS011;68776;44.762;37.698;2023-09-07T01:24:26;21.65;;;5.45;;
74872;SDS011;68776;44.762;37.698;2023-09-07T01:25:31;22.00;;;5.93;;
74872;SDS011;68776;44.762;37.698;2023-09-07T01:26:33;23.63;;;6.82;;
74872;SDS011;68776;44.762;37.698;2023-09-07T01:27:35;21.55;;;5.78;;
74872;SDS011;68776;44.762;37.698;2023-09-07T01:28:36;23.08;;;6.32;;
74872;SDS011;68776;44.762;37.698;2023-09-07T01:29:38;21.13;;;5.70;;
74872;SDS011;68776;44.762;37.698;2023-09-07T01:30:40;21.27;;;5.45;;
74872;SDS011;68776;44.762;37.698;2023-09-07T01:31:42;23.73;;;6.60;;
74872;SDS011;68776;44.762;37.698;2023-09-07T01:32:43;19.30;;;5.25;;
74872;SDS011;68776;44.762;37.698;2023-09-07T01:33:44;20.13;;;4.97;;
74872;SDS011;68776;44.762;37.698;2023-09-07T01:34:46;24.75;;;6.07;;
74872;SDS011;68776;44.762;37.698;2023-09-07T01:35:47;22.90;;;6.75;;
74872;SDS011;68776;44.762;37.698;2023-09-07T01:36:48;22.42;;;6.32;;
74872;SDS011;68776;44.762;37.698;2023-09-07T01:37:48;23.50;;;6.20;;
74872;SDS011;68776;44.762;37.698;2023-09-07T01:38:49;26.13;;;6.83;;
74872;SDS011;68776;44.762;37.698;2023-09-07T01:39:50;21.85;;;5.63;;
74872;SDS011;68776;44.762;37.698;2023-09-07T01:40:51;24.67;;;6.72;;
74872;SDS011;68776;44.762;37.698;2023-09-07T01:41:52;19.52;;;5.40;;
74872;SDS011;68776;44.762;37.698;2023-09-07T01:42:53;20.88;;;5.38;;
74872;SDS011;68776;44.762;37.698;2023-09-07T01:43:54;23.75;;;6.30;;
74872;SDS011;68776;44.762;37.698;2023-09-07T01:44:56;23.50;;;6.55;;
74872;SDS011;68776;44.762;37.698;2023-09-07T01:45:57;20.83;;;5.55;;
74872;SDS011;68776;44.762;37.698;2023-09-07T01:46:59;24.53;;;6.63;;
74872;SDS011;68776;44.762;37.698;2023-09-07T01:48:01;24.20;;;6.10;;
74872;SDS011;68776;44.762;37.698;2023-09-07T01:49:05;21.80;;;5.75;;
74872;SDS011;68776;44.762;37.698;2023-09-07T01:50:06;21.20;;;5.68;;
74872;SDS011;68776;44.762;37.698;2023-09-07T01:51:08;22.55;;;5.75;;
74872;SDS011;68776;44.762;37.698;2023-09-07T01:52:09;21.75;;;5.65;;
74872;SDS011;68776;44.762;37.698;2023-09-07T01:53:10;23.25;;;5.28;;
74872;SDS011;68776;44.762;37.698;2023-09-07T01:54:11;21.48;;;5.55;;
74872;SDS011;68776;44.762;37.698;2023-09-07T01:55:12;22.13;;;5.83;;
74872;SDS011;68776;44.762;37.698;2023-09-07T01:56:13;22.90;;;6.10;;
74872;SDS011;68776;44.762;37.698;2023-09-07T01:57:14;21.45;;;5.68;;
74872;SDS011;68776;44.762;37.698;2023-09-07T01:58:14;22.42;;;6.15;;
74872;SDS011;68776;44.762;37.698;2023-09-07T01:59:15;22.60;;;5.93;;
74872;SDS011;68776;44.762;37.698;2023-09-07T02:00:16;21.83;;;5.70;;
74872;SDS011;68776;44.762;37.698;2023-09-07T02:01:23;21.73;;;5.78;;
74872;SDS011;68776;44.762;37.698;2023-09-07T02:02:26;24.15;;;6.38;;
74872;SDS011;68776;44.762;37.698;2023-09-07T02:03:27;23.00;;;6.03;;
74872;SDS011;68776;44.762;37.698;2023-09-07T02:04:28;33.55;;;6.90;;
74872;SDS011;68776;44.762;37.698;2023-09-07T02:05:29;20.25;;;5.35;;
74872;SDS011;68776;44.762;37.698;2023-09-07T02:06:32;20.65;;;5.28;;
74872;SDS011;68776;44.762;37.698;2023-09-07T02:07:33;23.13;;;6.00;;
74872;SDS011;68776;44.762;37.698;2023-09-07T02:08:34;20.70;;;5.65;;
74872;SDS011;68776;44.762;37.698;2023-09-07T02:09:35;22.02;;;5.80;;
74872;SDS011;68776;44.762;37.698;2023-09-07T02:10:36;22.37;;;5.97;;
74872;SDS011;68776;44.762;37.698;2023-09-07T02:11:37;21.25;;;5.72;;
74872;SDS011;68776;44.762;37.698;2023-09-07T02:12:40;24.58;;;5.82;;
74872;SDS011;68776;44.762;37.698;2023-09-07T02:13:41;20.95;;;5.35;;
74872;SDS011;68776;44.762;37.698;2023-09-07T02:14:43;23.38;;;6.47;;
74872;SDS011;68776;44.762;37.698;2023-09-07T02:15:44;20.88;;;5.38;;
74872;SDS011;68776;44.762;37.698;2023-09-07T02:16:45;23.15;;;6.05;;
74872;SDS011;68776;44.762;37.698;2023-09-07T02:17:46;24.73;;;6.57;;
74872;SDS011;68776;44.762;37.698;2023-09-07T02:18:50;25.77;;;6.43;;
74872;SDS011;68776;44.762;37.698;2023-09-07T02:19:51;22.40;;;5.85;;
74872;SDS011;68776;44.762;37.698;2023-09-07T02:20:52;23.48;;;6.07;;
74872;SDS011;68776;44.762;37.698;2023-09-07T02:21:53;21.10;;;5.30;;
74872;SDS011;68776;44.762;37.698;2023-09-07T02:22:54;21.40;;;5.57;;
74872;SDS011;68776;44.762;37.698;2023-09-07T02:23:55;23.85;;;6.95;;
74872;SDS011;68776;44.762;37.698;2023-09-07T02:24:56;24.08;;;6.82;;
74872;SDS011;68776;44.762;37.698;2023-09-07T02:25:58;22.45;;;6.22;;
74872;SDS011;68776;44.762;37.698;2023-09-07T02:27:00;23.73;;;6.37;;
74872;SDS011;68776;44.762;37.698;2023-09-07T02:28:01;23.88;;;5.90;;
74872;SDS011;68776;44.762;37.698;2023-09-07T02:29:02;23.90;;;6.28;;
74872;SDS011;68776;44.762;37.698;2023-09-07T02:30:07;22.38;;;5.60;;
74872;SDS011;68776;44.762;37.698;2023-09-07T02:31:08;22.15;;;5.70;;
74872;SDS011;68776;44.762;37.698;2023-09-07T02:32:10;22.25;;;5.85;;
74872;SDS011;68776;44.762;37.698;2023-09-07T02:33:10;23.52;;;6.18;;
74872;SDS011;68776;44.762;37.698;2023-09-07T02:34:11;23.65;;;6.47;;
74872;SDS011;68776;44.762;37.698;2023-09-07T02:35:12;23.50;;;6.00;;
74872;SDS011;68776;44.762;37.698;2023-09-07T02:36:14;21.48;;;5.55;;
74872;SDS011;68776;44.762;37.698;2023-09-07T02:37:15;21.70;;;5.63;;
74872;SDS011;68776;44.762;37.698;2023-09-07T02:38:16;20.63;;;5.40;;
74872;SDS011;68776;44.762;37.698;2023-09-07T02:39:17;27.42;;;6.22;;
74872;SDS011;68776;44.762;37.698;2023-09-07T02:40:19;24.13;;;6.63;;
74872;SDS011;68776;44.762;37.698;2023-09-07T02:41:20;22.15;;;5.85;;
74872;SDS011;68776;44.762;37.698;2023-09-07T02:42:22;21.92;;;5.72;;
74872;SDS011;68776;44.762;37.698;2023-09-07T02:43:24;22.52;;;5.88;;
74872;SDS011;68776;44.762;37.698;2023-09-07T02:44:25;24.80;;;6.37;;
74872;SDS011;68776;44.762;37.698;2023-09-07T02:45:26;23.02;;;5.95;;
74872;SDS011;68776;44.762;37.698;2023-09-07T02:46:27;20.73;;;5.63;;
74872;SDS011;68776;44.762;37.698;2023-09-07T02:47:28;20.30;;;4.97;;
74872;SDS011;68776;44.762;37.698;2023-09-07T02:48:29;21.35;;;5.47;;
74872;SDS011;68776;44.762;37.698;2023-09-07T02:49:30;22.10;;;5.70;;
74872;SDS011;68776;44.762;37.698;2023-09-07T02:50:32;21.25;;;5.55;;
74872;SDS011;68776;44.762;37.698;2023-09-07T02:51:34;22.70;;;6.25;;
74872;SDS011;68776;44.762;37.698;2023-09-07T02:52:36;22.20;;;6.00;;
74872;SDS011;68776;44.762;37.698;2023-09-07T02:53:36;22.38;;;6.80;;
74872;SDS011;68776;44.762;37.698;2023-09-07T02:54:37;25.08;;;5.63;;
74872;SDS011;68776;44.762;37.698;2023-09-07T02:55:39;21.33;;;5.55;;
74872;SDS011;68776;44.762;37.698;2023-09-07T02:56:40;22.60;;;5.97;;
74872;SDS011;68776;44.762;37.698;2023-09-07T02:57:41;21.50;;;5.50;;
74872;SDS011;68776;44.762;37.698;2023-09-07T02:58:42;21.83;;;5.85;;
74872;SDS011;68776;44.762;37.698;2023-09-07T02:59:43;22.67;;;5.93;;
74872;SDS011;68776;44.762;37.698;2023-09-07T03:00:44;24.02;;;6.50;;
74872;SDS011;68776;44.762;37.698;2023-09-07T03:01:48;19.63;;;4.93;;
74872;SDS011;68776;44.762;37.698;2023-09-07T03:02:50;20.55;;;5.22;;
74872;SDS011;68776;44.762;37.698;2023-09-07T03:03:52;21.23;;;5.47;;
74872;SDS011;68776;44.762;37.698;2023-09-07T03:04:54;25.55;;;6.07;;
74872;SDS011;68776;44.762;37.698;2023-09-07T03:05:58;22.80;;;6.10;;
74872;SDS011;68776;44.762;37.698;2023-09-07T03:07:13;23.02;;;6.10;;
74872;SDS011;68776;44.762;37.698;2023-09-07T03:08:14;20.53;;;5.40;;
74872;SDS011;68776;44.762;37.698;2023-09-07T03:09:15;22.58;;;5.63;;
74872;SDS011;68776;44.762;37.698;2023-09-07T03:10:16;20.27;;;5.45;;
74872;SDS011;68776;44.762;37.698;2023-09-07T03:11:18;21.13;;;6.00;;
74872;SDS011;68776;44.762;37.698;2023-09-07T03:12:22;23.67;;;6.40;;
74872;SDS011;68776;44.762;37.698;2023-09-07T03:13:23;22.48;;;6.30;;
74872;SDS011;68776;44.762;37.698;2023-09-07T03:14:24;26.02;;;6.82;;
74872;SDS011;68776;44.762;37.698;2023-09-07T03:15:25;22.17;;;6.22;;
74872;SDS011;68776;44.762;37.698;2023-09-07T03:16:27;21.17;;;5.57;;
74872;SDS011;68776;44.762;37.698;2023-09-07T03:17:28;26.38;;;5.95;;
74872;SDS011;68776;44.762;37.698;2023-09-07T03:18:30;21.85;;;5.70;;
74872;SDS011;68776;44.762;37.698;2023-09-07T03:19:31;20.00;;;5.45;;
74872;SDS011;68776;44.762;37.698;2023-09-07T03:20:33;21.00;;;5.53;;
74872;SDS011;68776;44.762;37.698;2023-09-07T03:21:35;23.10;;;5.75;;
74872;SDS011;68776;44.762;37.698;2023-09-07T03:22:35;21.58;;;5.75;;
74872;SDS011;68776;44.762;37.698;2023-09-07T03:23:36;23.45;;;5.82;;
74872;SDS011;68776;44.762;37.698;2023-09-07T03:24:40;24.30;;;6.60;;
74872;SDS011;68776;44.762;37.698;2023-09-07T03:25:41;23.38;;;6.40;;
74872;SDS011;68776;44.762;37.698;2023-09-07T03:26:42;25.17;;;6.53;;
74872;SDS011;68776;44.762;37.698;2023-09-07T03:27:44;22.08;;;5.95;;
74872;SDS011;68776;44.762;37.698;2023-09-07T03:28:47;20.40;;;5.18;;
74872;SDS011;68776;44.762;37.698;2023-09-07T03:29:49;19.95;;;5.20;;
74872;SDS011;68776;44.762;37.698;2023-09-07T03:30:53;24.40;;;5.97;;
74872;SDS011;68776;44.762;37.698;2023-09-07T03:31:55;22.55;;;5.95;;
74872;SDS011;68776;44.762;37.698;2023-09-07T03:32:56;22.15;;;6.07;;
74872;SDS011;68776;44.762;37.698;2023-09-07T03:33:58;22.17;;;5.88;;
74872;SDS011;68776;44.762;37.698;2023-09-07T03:35:00;22.97;;;6.10;;
74872;SDS011;68776;44.762;37.698;2023-09-07T03:36:01;22.35;;;6.05;;
74872;SDS011;68776;44.762;37.698;2023-09-07T03:37:03;21.48;;;5.88;;
74872;SDS011;68776;44.762;37.698;2023-09-07T03:38:06;19.67;;;5.13;;
74872;SDS011;68776;44.762;37.698;2023-09-07T03:39:07;21.88;;;5.65;;
74872;SDS011;68776;44.762;37.698;2023-09-07T03:40:08;23.05;;;6.40;;
74872;SDS011;68776;44.762;37.698;2023-09-07T03:41:10;22.15;;;5.55;;
74872;SDS011;68776;44.762;37.698;2023-09-07T03:42:11;22.33;;;6.30;;
74872;SDS011;68776;44.762;37.698;2023-09-07T03:43:12;21.40;;;5.73;;
74872;SDS011;68776;44.762;37.698;2023-09-07T03:44:13;20.23;;;5.20;;
74872;SDS011;68776;44.762;37.698;2023-09-07T03:45:14;20.13;;;5.18;;
74872;SDS011;68776;44.762;37.698;2023-09-07T03:46:15;23.08;;;6.15;;
74872;SDS011;68776;44.762;37.698;2023-09-07T03:47:16;20.45;;;5.30;;
74872;SDS011;68776;44.762;37.698;2023-09-07T03:48:18;21.77;;;5.78;;
74872;SDS011;68776;44.762;37.698;2023-09-07T03:49:20;23.05;;;6.25;;
74872;SDS011;68776;44.762;37.698;2023-09-07T03:50:20;21.83;;;5.43;;
74872;SDS011;68776;44.762;37.698;2023-09-07T03:51:22;21.83;;;5.70;;
74872;SDS011;68776;44.762;37.698;2023-09-07T03:52:23;25.05;;;5.85;;
74872;SDS011;68776;44.762;37.698;2023-09-07T03:53:28;25.05;;;5.88;;
74872;SDS011;68776;44.762;37.698;2023-09-07T03:54:30;27.55;;;6.38;;
74872;SDS011;68776;44.762;37.698;2023-09-07T03:55:39;24.90;;;6.10;;
74872;SDS011;68776;44.762;37.698;2023-09-07T03:56:42;23.30;;;6.20;;
74872;SDS011;68776;44.762;37.698;2023-09-07T03:57:43;22.58;;;6.10;;
74872;SDS011;68776;44.762;37.698;2023-09-07T03:58:45;24.60;;;6.82;;
74872;SDS011;68776;44.762;37.698;2023-09-07T03:59:47;22.00;;;5.65;;
74872;SDS011;68776;44.762;37.698;2023-09-07T04:01:50;23.00;;;6.27;;
74872;SDS011;68776;44.762;37.698;2023-09-07T04:02:51;23.53;;;6.13;;
74872;SDS011;68776;44.762;37.698;2023-09-07T04:03:52;20.73;;;5.28;;
74872;SDS011;68776;44.762;37.698;2023-09-07T04:04:54;21.10;;;6.03;;
74872;SDS011;68776;44.762;37.698;2023-09-07T04:05:58;19.70;;;4.97;;
74872;SDS011;68776;44.762;37.698;2023-09-07T04:06:59;22.08;;;5.60;;
74872;SDS011;68776;44.762;37.698;2023-09-07T04:07:59;22.25;;;6.07;;
74872;SDS011;68776;44.762;37.698;2023-09-07T04:09:03;21.58;;;5.63;;
74872;SDS011;68776;44.762;37.698;2023-09-07T04:10:05;24.95;;;6.38;;
74872;SDS011;68776;44.762;37.698;2023-09-07T04:11:06;22.93;;;6.20;;
74872;SDS011;68776;44.762;37.698;2023-09-07T04:12:08;20.70;;;5.47;;
74872;SDS011;68776;44.762;37.698;2023-09-07T04:13:10;22.48;;;6.35;;
74872;SDS011;68776;44.762;37.698;2023-09-07T04:14:11;20.17;;;5.35;;
74872;SDS011;68776;44.762;37.698;2023-09-07T04:15:12;21.98;;;4.97;;
74872;SDS011;68776;44.762;37.698;2023-09-07T04:16:13;23.65;;;6.35;;
74872;SDS011;68776;44.762;37.698;2023-09-07T04:17:14;20.95;;;5.57;;
74872;SDS011;68776;44.762;37.698;2023-09-07T04:18:15;23.02;;;6.53;;
74872;SDS011;68776;44.762;37.698;2023-09-07T04:19:17;25.37;;;6.97;;
74872;SDS011;68776;44.762;37.698;2023-09-07T04:20:19;22.58;;;6.07;;
74872;SDS011;68776;44.762;37.698;2023-09-07T04:21:20;22.33;;;5.68;;
74872;SDS011;68776;44.762;37.698;2023-09-07T04:22:21;22.02;;;5.53;;
74872;SDS011;68776;44.762;37.698;2023-09-07T04:23:23;23.23;;;6.20;;
74872;SDS011;68776;44.762;37.698;2023-09-07T04:24:24;26.02;;;6.65;;
74872;SDS011;68776;44.762;37.698;2023-09-07T04:25:25;21.98;;;6.00;;
74872;SDS011;68776;44.762;37.698;2023-09-07T04:26:26;21.10;;;5.55;;
74872;SDS011;68776;44.762;37.698;2023-09-07T04:27:27;21.73;;;5.80;;
74872;SDS011;68776;44.762;37.698;2023-09-07T04:28:28;25.23;;;6.15;;
74872;SDS011;68776;44.762;37.698;2023-09-07T04:29:29;23.33;;;5.65;;
74872;SDS011;68776;44.762;37.698;2023-09-07T04:30:30;22.98;;;6.18;;
74872;SDS011;68776;44.762;37.698;2023-09-07T04:31:31;21.90;;;6.07;;
74872;SDS011;68776;44.762;37.698;2023-09-07T04:32:32;22.90;;;6.38;;
74872;SDS011;68776;44.762;37.698;2023-09-07T04:33:34;22.47;;;5.80;;
74872;SDS011;68776;44.762;37.698;2023-09-07T04:34:35;22.40;;;6.00;;
74872;SDS011;68776;44.762;37.698;2023-09-07T04:41:44;22.83;;;6.07;;
74872;SDS011;68776;44.762;37.698;2023-09-07T04:42:45;24.42;;;6.25;;
74872;SDS011;68776;44.762;37.698;2023-09-07T04:43:46;20.40;;;5.57;;
74872;SDS011;68776;44.762;37.698;2023-09-07T04:44:47;23.13;;;6.20;;
74872;SDS011;68776;44.762;37.698;2023-09-07T04:45:48;22.05;;;5.72;;
74872;SDS011;68776;44.762;37.698;2023-09-07T04:46:49;23.23;;;6.93;;
74872;SDS011;68776;44.762;37.698;2023-09-07T04:47:52;23.73;;;6.10;;
74872;SDS011;68776;44.762;37.698;2023-09-07T04:48:53;23.37;;;6.00;;
74872;SDS011;68776;44.762;37.698;2023-09-07T04:49:54;22.55;;;6.15;;
74872;SDS011;68776;44.762;37.698;2023-09-07T04:52:00;20.75;;;5.53;;
74872;SDS011;68776;44.762;37.698;2023-09-07T04:53:01;23.80;;;5.75;;
74872;SDS011;68776;44.762;37.698;2023-09-07T04:54:02;22.38;;;6.00;;
74872;SDS011;68776;44.762;37.698;2023-09-07T04:55:05;22.25;;;6.15;;
74872;SDS011;68776;44.762;37.698;2023-09-07T04:56:07;22.45;;;6.45;;
74872;SDS011;68776;44.762;37.698;2023-09-07T04:57:08;22.42;;;5.85;;
74872;SDS011;68776;44.762;37.698;2023-09-07T04:58:09;21.67;;;5.72;;
74872;SDS011;68776;44.762;37.698;2023-09-07T04:59:10;21.17;;;5.63;;
74872;SDS011;68776;44.762;37.698;2023-09-07T05:00:11;21.90;;;5.63;;
74872;SDS011;68776;44.762;37.698;2023-09-07T05:01:13;20.52;;;5.38;;
74872;SDS011;68776;44.762;37.698;2023-09-07T05:02:16;2.67;;;1.07;;
74872;SDS011;68776;44.762;37.698;2023-09-07T05:03:17;2.75;;;0.90;;
74872;SDS011;68776;44.762;37.698;2023-09-07T05:04:19;3.85;;;1.30;;
74872;SDS011;68776;44.762;37.698;2023-09-07T05:05:20;3.10;;;1.20;;
74872;SDS011;68776;44.762;37.698;2023-09-07T05:06:21;3.97;;;1.58;;
74872;SDS011;68776;44.762;37.698;2023-09-07T05:07:23;4.63;;;1.75;;
74872;SDS011;68776;44.762;37.698;2023-09-07T05:08:24;3.42;;;1.25;;
74872;SDS011;68776;44.762;37.698;2023-09-07T05:09:25;6.38;;;1.42;;
74872;SDS011;68776;44.762;37.698;2023-09-07T05:10:29;4.07;;;1.30;;
74872;SDS011;68776;44.762;37.698;2023-09-07T05:11:30;4.38;;;1.60;;
74872;SDS011;68776;44.762;37.698;2023-09-07T05:12:31;3.77;;;0.97;;
74872;SDS011;68776;44.762;37.698;2023-09-07T05:13:32;4.15;;;1.35;;
74872;SDS011;68776;44.762;37.698;2023-09-07T05:14:35;6.13;;;1.40;;
74872;SDS011;68776;44.762;37.698;2023-09-07T05:15:36;3.97;;;1.40;;
74872;SDS011;68776;44.762;37.698;2023-09-07T05:16:37;3.90;;;1.20;;
74872;SDS011;68776;44.762;37.698;2023-09-07T05:17:38;5.65;;;2.03;;
74872;SDS011;68776;44.762;37.698;2023-09-07T05:18:40;6.07;;;1.80;;
74872;SDS011;68776;44.762;37.698;2023-09-07T05:19:43;3.00;;;1.05;;
74872;SDS011;68776;44.762;37.698;2023-09-07T05:20:45;22.98;;;6.05;;
74872;SDS011;68776;44.762;37.698;2023-09-07T05:21:46;25.02;;;5.90;;
74872;SDS011;68776;44.762;37.698;2023-09-07T05:22:47;22.80;;;5.80;;
74872;SDS011;68776;44.762;37.698;2023-09-07T05:23:48;21.65;;;5.60;;
74872;SDS011;68776;44.762;37.698;2023-09-07T05:24:49;6.57;;;1.45;;
74872;SDS011;68776;44.762;37.698;2023-09-07T05:25:52;4.93;;;1.40;;
74872;SDS011;68776;44.762;37.698;2023-09-07T05:26:55;21.30;;;6.03;;
74872;SDS011;68776;44.762;37.698;2023-09-07T05:27:56;20.20;;;5.47;;
74872;SDS011;68776;44.762;37.698;2023-09-07T05:28:57;21.45;;;5.80;;
74872;SDS011;68776;44.762;37.698;2023-09-07T05:29:58;3.65;;;1.50;;
74872;SDS011;68776;44.762;37.698;2023-09-07T05:30:59;6.83;;;1.50;;
74872;SDS011;68776;44.762;37.698;2023-09-07T05:32:00;3.45;;;1.40;;
74872;SDS011;68776;44.762;37.698;2023-09-07T05:33:01;33.22;;;6.07;;
74872;SDS011;68776;44.762;37.698;2023-09-07T05:34:02;28.00;;;6.28;;
74872;SDS011;68776;44.762;37.698;2023-09-07T05:35:04;25.13;;;6.63;;
74872;SDS011;68776;44.762;37.698;2023-09-07T05:36:05;21.85;;;5.97;;
74872;SDS011;68776;44.762;37.698;2023-09-07T05:37:06;22.40;;;5.87;;
74872;SDS011;68776;44.762;37.698;2023-09-07T05:38:08;23.13;;;6.10;;
74872;SDS011;68776;44.762;37.698;2023-09-07T05:39:10;22.08;;;5.78;;
74872;SDS011;68776;44.762;37.698;2023-09-07T05:40:11;23.05;;;5.80;;
74872;SDS011;68776;44.762;37.698;2023-09-07T05:41:12;22.52;;;5.90;;
74872;SDS011;68776;44.762;37.698;2023-09-07T05:42:13;22.80;;;6.07;;
74872;SDS011;68776;44.762;37.698;2023-09-07T05:43:14;22.63;;;5.60;;
74872;SDS011;68776;44.762;37.698;2023-09-07T05:44:15;22.77;;;5.70;;
74872;SDS011;68776;44.762;37.698;2023-09-07T05:45:16;22.20;;;5.80;;
74872;SDS011;68776;44.762;37.698;2023-09-07T05:46:17;20.77;;;5.38;;
74872;SDS011;68776;44.762;37.698;2023-09-07T05:47:18;19.13;;;4.97;;
74872;SDS011;68776;44.762;37.698;2023-09-07T05:48:19;21.23;;;5.28;;
74872;SDS011;68776;44.762;37.698;2023-09-07T05:49:21;23.40;;;5.88;;
74872;SDS011;68776;44.762;37.698;2023-09-07T05:50:22;22.08;;;5.75;;
74872;SDS011;68776;44.762;37.698;2023-09-07T05:51:23;22.50;;;6.07;;
74872;SDS011;68776;44.762;37.698;2023-09-07T05:52:24;25.53;;;6.50;;
74872;SDS011;68776;44.762;37.698;2023-09-07T05:53:25;22.50;;;5.93;;
74872;SDS011;68776;44.762;37.698;2023-09-07T05:54:26;18.60;;;5.07;;
74872;SDS011;68776;44.762;37.698;2023-09-07T05:55:27;18.38;;;4.82;;
74872;SDS011;68776;44.762;37.698;2023-09-07T05:56:28;19.38;;;5.20;;
74872;SDS011;68776;44.762;37.698;2023-09-07T05:57:30;19.85;;;5.57;;
74872;SDS011;68776;44.762;37.698;2023-09-07T05:58:31;20.42;;;5.30;;
74872;SDS011;68776;44.762;37.698;2023-09-07T05:59:33;23.52;;;5.43;;
74872;SDS011;68776;44.762;37.698;2023-09-07T06:00:35;19.70;;;5.18;;
74872;SDS011;68776;44.762;37.698;2023-09-07T06:01:36;19.87;;;5.30;;
74872;SDS011;68776;44.762;37.698;2023-09-07T06:02:39;19.80;;;5.22;;
74872;SDS011;68776;44.762;37.698;2023-09-07T06:03:42;19.98;;;5.30;;
74872;SDS011;68776;44.762;37.698;2023-09-07T06:04:43;20.67;;;4.95;;
74872;SDS011;68776;44.762;37.698;2023-09-07T06:05:44;19.13;;;5.13;;
74872;SDS011;68776;44.762;37.698;2023-09-07T06:06:46;21.33;;;5.72;;
74872;SDS011;68776;44.762;37.698;2023-09-07T06:07:47;20.20;;;5.15;;
74872;SDS011;68776;44.762;37.698;2023-09-07T06:08:50;19.40;;;5.22;;
74872;SDS011;68776;44.762;37.698;2023-09-07T06:09:51;20.35;;;5.55;;